sensor_id;sensor_type;location;lat;lon;timestamp;temperature;humidity
3208;DHT22;1616;52.394;9.756;2023-04-15T00:02:19;8.70;1.00
3208;DHT22;1616;52.394;9.756;2023-04-15T00:04:45;8.70;1.00
3208;DHT22;1616;52.394;9.756;2023-04-15T00:07:11;8.60;1.00
3208;DHT22;1616;52.394;9.756;2023-04-15T00:09:37;8.70;1.00
3208;DHT22;1616;52.394;9.756;2023-04-15T00:12:04;8.70;1.00
3208;DHT22;1616;52.394;9.756;2023-04-15T00:14:30;8.70;1.00
3208;DHT22;1616;52.394;9.756;2023-04-15T00:16:55;8.80;1.00
3208;DHT22;1616;52.394;9.756;2023-04-15T00:19:22;8.70;1.00
3208;DHT22;1616;52.394;9.756;2023-04-15T00:21:48;8.70;1.00
3208;DHT22;1616;52.394;9.756;2023-04-15T00:24:14;8.70;1.00
3208;DHT22;1616;52.394;9.756;2023-04-15T00:26:40;8.70;1.00
3208;DHT22;1616;52.394;9.756;2023-04-15T00:29:06;8.60;1.00
3208;DHT22;1616;52.394;9.756;2023-04-15T00:31:31;8.60;1.00
3208;DHT22;1616;52.394;9.756;2023-04-15T00:33:57;8.60;1.00
3208;DHT22;1616;52.394;9.756;2023-04-15T00:36:24;8.60;1.00
3208;DHT22;1616;52.394;9.756;2023-04-15T00:38:50;8.60;1.00
3208;DHT22;1616;52.394;9.756;2023-04-15T00:41:17;8.60;1.00
3208;DHT22;1616;52.394;9.756;2023-04-15T00:43:43;8.70;1.00
3208;DHT22;1616;52.394;9.756;2023-04-15T00:46:12;8.70;1.00
3208;DHT22;1616;52.394;9.756;2023-04-15T00:48:38;8.80;1.00
3208;DHT22;1616;52.394;9.756;2023-04-15T00:51:05;8.80;1.00
3208;DHT22;1616;52.394;9.756;2023-04-15T00:53:32;8.80;1.00
3208;DHT22;1616;52.394;9.756;2023-04-15T00:55:57;8.80;1.00
3208;DHT22;1616;52.394;9.756;2023-04-15T00:58:23;8.90;1.00
3208;DHT22;1616;52.394;9.756;2023-04-15T01:00:49;8.90;1.00
3208;DHT22;1616;52.394;9.756;2023-04-15T01:03:19;8.90;1.00
3208;DHT22;1616;52.394;9.756;2023-04-15T01:05:45;8.90;1.00
3208;DHT22;1616;52.394;9.756;2023-04-15T01:08:11;8.90;1.00
3208;DHT22;1616;52.394;9.756;2023-04-15T01:10:37;8.90;1.00
3208;DHT22;1616;52.394;9.756;2023-04-15T01:13:04;8.90;1.00
3208;DHT22;1616;52.394;9.756;2023-04-15T01:15:29;8.80;1.00
3208;DHT22;1616;52.394;9.756;2023-04-15T01:17:58;8.80;1.00
3208;DHT22;1616;52.394;9.756;2023-04-15T01:20:23;8.80;1.00
3208;DHT22;1616;52.394;9.756;2023-04-15T01:22:49;8.80;1.00
3208;DHT22;1616;52.394;9.756;2023-04-15T01:25:24;8.80;1.00
3208;DHT22;1616;52.394;9.756;2023-04-15T01:27:52;8.80;1.00
3208;DHT22;1616;52.394;9.756;2023-04-15T01:30:18;8.80;1.00
3208;DHT22;1616;52.394;9.756;2023-04-15T01:32:44;8.80;1.00
3208;DHT22;1616;52.394;9.756;2023-04-15T01:35:10;8.80;1.00
3208;DHT22;1616;52.394;9.756;2023-04-15T01:37:36;8.90;1.00
3208;DHT22;1616;52.394;9.756;2023-04-15T01:40:02;8.90;1.00
3208;DHT22;1616;52.394;9.756;2023-04-15T01:42:28;8.90;1.00
3208;DHT22;1616;52.394;9.756;2023-04-15T01:44:53;8.90;1.00
3208;DHT22;1616;52.394;9.756;2023-04-15T01:47:19;8.90;1.00
3208;DHT22;1616;52.394;9.756;2023-04-15T01:49:45;8.90;1.00
3208;DHT22;1616;52.394;9.756;2023-04-15T01:52:11;8.90;1.00
3208;DHT22;1616;52.394;9.756;2023-04-15T01:54:36;9.00;1.00
3208;DHT22;1616;52.394;9.756;2023-04-15T01:57:02;9.00;1.00
3208;DHT22;1616;52.394;9.756;2023-04-15T01:59:29;9.00;1.00
3208;DHT22;1616;52.394;9.756;2023-04-15T02:01:56;9.00;1.00
3208;DHT22;1616;52.394;9.756;2023-04-15T02:04:22;9.00;1.00
3208;DHT22;1616;52.394;9.756;2023-04-15T02:06:48;9.00;1.00
3208;DHT22;1616;52.394;9.756;2023-04-15T02:09:13;9.20;1.00
3208;DHT22;1616;52.394;9.756;2023-04-15T02:11:39;9.00;1.00
3208;DHT22;1616;52.394;9.756;2023-04-15T02:14:04;9.10;1.00
3208;DHT22;1616;52.394;9.756;2023-04-15T02:16:31;9.00;1.00
3208;DHT22;1616;52.394;9.756;2023-04-15T02:18:59;9.00;1.00
3208;DHT22;1616;52.394;9.756;2023-04-15T02:21:28;9.10;1.00
3208;DHT22;1616;52.394;9.756;2023-04-15T02:23:53;9.10;1.00
3208;DHT22;1616;52.394;9.756;2023-04-15T02:26:20;9.10;1.00
3208;DHT22;1616;52.394;9.756;2023-04-15T02:28:47;9.10;1.00
3208;DHT22;1616;52.394;9.756;2023-04-15T02:31:13;9.00;1.00
3208;DHT22;1616;52.394;9.756;2023-04-15T02:33:39;9.10;1.00
3208;DHT22;1616;52.394;9.756;2023-04-15T02:36:06;9.00;1.00
3208;DHT22;1616;52.394;9.756;2023-04-15T02:38:32;9.10;1.00
3208;DHT22;1616;52.394;9.756;2023-04-15T02:40:58;9.10;1.00
3208;DHT22;1616;52.394;9.756;2023-04-15T02:43:24;9.10;1.00
3208;DHT22;1616;52.394;9.756;2023-04-15T02:45:49;9.10;1.00
3208;DHT22;1616;52.394;9.756;2023-04-15T02:48:15;9.10;1.00
3208;DHT22;1616;52.394;9.756;2023-04-15T02:50:45;9.00;1.00
3208;DHT22;1616;52.394;9.756;2023-04-15T02:53:11;9.00;1.00
3208;DHT22;1616;52.394;9.756;2023-04-15T02:55:37;9.10;1.00
3208;DHT22;1616;52.394;9.756;2023-04-15T02:58:04;8.90;1.00
3208;DHT22;1616;52.394;9.756;2023-04-15T03:00:30;9.00;1.00
3208;DHT22;1616;52.394;9.756;2023-04-15T03:03:01;9.00;1.00
3208;DHT22;1616;52.394;9.756;2023-04-15T03:05:27;9.00;1.00
3208;DHT22;1616;52.394;9.756;2023-04-15T03:07:53;8.80;1.00
3208;DHT22;1616;52.394;9.756;2023-04-15T03:10:19;8.90;1.00
3208;DHT22;1616;52.394;9.756;2023-04-15T03:12:45;8.90;1.00
3208;DHT22;1616;52.394;9.756;2023-04-15T03:15:11;8.90;1.00
3208;DHT22;1616;52.394;9.756;2023-04-15T03:17:37;8.90;1.00
3208;DHT22;1616;52.394;9.756;2023-04-15T03:20:04;8.90;1.00
3208;DHT22;1616;52.394;9.756;2023-04-15T03:22:31;8.80;1.00
3208;DHT22;1616;52.394;9.756;2023-04-15T03:24:56;8.80;1.00
3208;DHT22;1616;52.394;9.756;2023-04-15T03:27:23;8.80;1.00
3208;DHT22;1616;52.394;9.756;2023-04-15T03:29:48;8.80;1.00
3208;DHT22;1616;52.394;9.756;2023-04-15T03:32:14;8.70;1.00
3208;DHT22;1616;52.394;9.756;2023-04-15T03:34:40;8.70;1.00
3208;DHT22;1616;52.394;9.756;2023-04-15T03:37:07;8.70;1.00
3208;DHT22;1616;52.394;9.756;2023-04-15T03:39:33;8.70;1.00
3208;DHT22;1616;52.394;9.756;2023-04-15T03:41:58;8.60;1.00
3208;DHT22;1616;52.394;9.756;2023-04-15T03:44:26;8.60;1.00
3208;DHT22;1616;52.394;9.756;2023-04-15T03:46:52;8.50;1.00
3208;DHT22;1616;52.394;9.756;2023-04-15T03:49:17;8.50;1.00
3208;DHT22;1616;52.394;9.756;2023-04-15T03:51:44;8.50;1.00
3208;DHT22;1616;52.394;9.756;2023-04-15T03:54:10;8.40;1.00
3208;DHT22;1616;52.394;9.756;2023-04-15T03:56:37;8.40;1.00
3208;DHT22;1616;52.394;9.756;2023-04-15T03:59:02;8.40;1.00
3208;DHT22;1616;52.394;9.756;2023-04-15T04:01:28;8.30;1.00
3208;DHT22;1616;52.394;9.756;2023-04-15T04:03:53;8.30;1.00
3208;DHT22;1616;52.394;9.756;2023-04-15T04:06:19;8.30;1.00
3208;DHT22;1616;52.394;9.756;2023-04-15T04:08:45;8.20;1.00
3208;DHT22;1616;52.394;9.756;2023-04-15T04:11:10;8.20;1.00
3208;DHT22;1616;52.394;9.756;2023-04-15T04:13:36;8.10;1.00
3208;DHT22;1616;52.394;9.756;2023-04-15T04:16:02;8.10;1.00
3208;DHT22;1616;52.394;9.756;2023-04-15T04:18:30;8.10;1.00
3208;DHT22;1616;52.394;9.756;2023-04-15T04:20:56;8.10;1.00
3208;DHT22;1616;52.394;9.756;2023-04-15T04:23:22;8.00;1.00
3208;DHT22;1616;52.394;9.756;2023-04-15T04:25:47;8.00;1.00
3208;DHT22;1616;52.394;9.756;2023-04-15T04:28:13;8.00;1.00
3208;DHT22;1616;52.394;9.756;2023-04-15T04:30:39;8.00;1.00
3208;DHT22;1616;52.394;9.756;2023-04-15T04:33:06;8.00;1.00
3208;DHT22;1616;52.394;9.756;2023-04-15T04:35:32;8.00;1.00
3208;DHT22;1616;52.394;9.756;2023-04-15T04:37:59;8.00;1.00
3208;DHT22;1616;52.394;9.756;2023-04-15T04:40:25;8.00;1.00
3208;DHT22;1616;52.394;9.756;2023-04-15T04:42:52;7.90;1.00
3208;DHT22;1616;52.394;9.756;2023-04-15T04:45:19;8.00;1.00
3208;DHT22;1616;52.394;9.756;2023-04-15T04:47:44;7.90;1.00
3208;DHT22;1616;52.394;9.756;2023-04-15T04:50:11;8.00;1.00
3208;DHT22;1616;52.394;9.756;2023-04-15T04:52:37;8.00;1.00
3208;DHT22;1616;52.394;9.756;2023-04-15T04:55:03;8.00;1.00
3208;DHT22;1616;52.394;9.756;2023-04-15T04:57:29;8.00;1.00
3208;DHT22;1616;52.394;9.756;2023-04-15T04:59:54;8.00;1.00
3208;DHT22;1616;52.394;9.756;2023-04-15T05:02:20;7.90;1.00
3208;DHT22;1616;52.394;9.756;2023-04-15T05:04:45;8.00;1.00
3208;DHT22;1616;52.394;9.756;2023-04-15T05:07:11;8.00;1.00
3208;DHT22;1616;52.394;9.756;2023-04-15T05:09:36;8.00;1.00
3208;DHT22;1616;52.394;9.756;2023-04-15T05:12:05;8.00;1.00
3208;DHT22;1616;52.394;9.756;2023-04-15T05:14:32;8.00;1.00
3208;DHT22;1616;52.394;9.756;2023-04-15T05:16:57;8.00;1.00
3208;DHT22;1616;52.394;9.756;2023-04-15T05:19:23;8.00;1.00
3208;DHT22;1616;52.394;9.756;2023-04-15T05:21:49;8.00;1.00
3208;DHT22;1616;52.394;9.756;2023-04-15T05:24:14;8.00;1.00
3208;DHT22;1616;52.394;9.756;2023-04-15T05:26:40;8.00;1.00
3208;DHT22;1616;52.394;9.756;2023-04-15T05:29:05;8.00;1.00
3208;DHT22;1616;52.394;9.756;2023-04-15T05:31:31;8.00;1.00
3208;DHT22;1616;52.394;9.756;2023-04-15T05:33:57;8.00;1.00
3208;DHT22;1616;52.394;9.756;2023-04-15T05:36:23;8.00;1.00
3208;DHT22;1616;52.394;9.756;2023-04-15T05:38:48;8.00;1.00
3208;DHT22;1616;52.394;9.756;2023-04-15T05:41:14;8.00;1.00
3208;DHT22;1616;52.394;9.756;2023-04-15T05:43:40;8.00;1.00
3208;DHT22;1616;52.394;9.756;2023-04-15T05:46:06;8.00;1.00
3208;DHT22;1616;52.394;9.756;2023-04-15T05:48:33;8.00;1.00
3208;DHT22;1616;52.394;9.756;2023-04-15T05:50:59;8.00;1.00
3208;DHT22;1616;52.394;9.756;2023-04-15T05:53:25;8.00;1.00
3208;DHT22;1616;52.394;9.756;2023-04-15T05:55:51;8.00;1.00
3208;DHT22;1616;52.394;9.756;2023-04-15T05:58:16;8.10;1.00
3208;DHT22;1616;52.394;9.756;2023-04-15T06:00:42;8.10;1.00
3208;DHT22;1616;52.394;9.756;2023-04-15T06:03:09;8.10;1.00
3208;DHT22;1616;52.394;9.756;2023-04-15T06:05:36;8.10;1.00
3208;DHT22;1616;52.394;9.756;2023-04-15T06:08:01;8.10;1.00
3208;DHT22;1616;52.394;9.756;2023-04-15T06:10:27;8.10;1.00
3208;DHT22;1616;52.394;9.756;2023-04-15T06:12:53;8.20;1.00
3208;DHT22;1616;52.394;9.756;2023-04-15T06:15:19;8.10;1.00
3208;DHT22;1616;52.394;9.756;2023-04-15T06:17:45;8.20;1.00
3208;DHT22;1616;52.394;9.756;2023-04-15T06:20:11;8.20;1.00
3208;DHT22;1616;52.394;9.756;2023-04-15T06:22:37;8.20;1.00
3208;DHT22;1616;52.394;9.756;2023-04-15T06:25:04;8.20;1.00
3208;DHT22;1616;52.394;9.756;2023-04-15T06:27:30;8.30;1.00
3208;DHT22;1616;52.394;9.756;2023-04-15T06:29:56;8.20;1.00
3208;DHT22;1616;52.394;9.756;2023-04-15T06:32:22;8.30;1.00
3208;DHT22;1616;52.394;9.756;2023-04-15T06:34:48;8.30;1.00
3208;DHT22;1616;52.394;9.756;2023-04-15T06:37:13;8.30;1.00
3208;DHT22;1616;52.394;9.756;2023-04-15T06:39:41;8.30;1.00
3208;DHT22;1616;52.394;9.756;2023-04-15T06:42:10;8.30;1.00
3208;DHT22;1616;52.394;9.756;2023-04-15T06:44:35;8.30;1.00
3208;DHT22;1616;52.394;9.756;2023-04-15T06:47:02;8.30;1.00
3208;DHT22;1616;52.394;9.756;2023-04-15T06:49:28;8.20;1.00
3208;DHT22;1616;52.394;9.756;2023-04-15T06:51:54;8.20;1.00
3208;DHT22;1616;52.394;9.756;2023-04-15T06:54:20;8.30;1.00
3208;DHT22;1616;52.394;9.756;2023-04-15T06:56:45;8.30;1.00
3208;DHT22;1616;52.394;9.756;2023-04-15T06:59:12;8.30;1.00
3208;DHT22;1616;52.394;9.756;2023-04-15T07:01:40;8.30;1.00
3208;DHT22;1616;52.394;9.756;2023-04-15T07:04:06;8.30;1.00
3208;DHT22;1616;52.394;9.756;2023-04-15T07:06:32;8.30;1.00
3208;DHT22;1616;52.394;9.756;2023-04-15T07:08:58;8.30;1.00
3208;DHT22;1616;52.394;9.756;2023-04-15T07:11:27;8.30;1.00
3208;DHT22;1616;52.394;9.756;2023-04-15T07:13:52;8.30;1.00
3208;DHT22;1616;52.394;9.756;2023-04-15T07:16:18;8.30;1.00
3208;DHT22;1616;52.394;9.756;2023-04-15T07:18:44;8.40;1.00
3208;DHT22;1616;52.394;9.756;2023-04-15T07:21:09;8.40;1.00
3208;DHT22;1616;52.394;9.756;2023-04-15T07:23:36;8.50;1.00
3208;DHT22;1616;52.394;9.756;2023-04-15T07:26:02;8.50;1.00
3208;DHT22;1616;52.394;9.756;2023-04-15T07:28:27;8.50;1.00
3208;DHT22;1616;52.394;9.756;2023-04-15T07:30:54;8.50;1.00
3208;DHT22;1616;52.394;9.756;2023-04-15T07:33:20;8.50;1.00
3208;DHT22;1616;52.394;9.756;2023-04-15T07:35:46;8.50;1.00
3208;DHT22;1616;52.394;9.756;2023-04-15T07:38:11;8.40;1.00
3208;DHT22;1616;52.394;9.756;2023-04-15T07:40:38;8.40;1.00
3208;DHT22;1616;52.394;9.756;2023-04-15T07:43:05;8.50;1.00
3208;DHT22;1616;52.394;9.756;2023-04-15T07:45:31;8.50;1.00
3208;DHT22;1616;52.394;9.756;2023-04-15T07:47:57;8.60;1.00
3208;DHT22;1616;52.394;9.756;2023-04-15T07:50:23;8.60;1.00
3208;DHT22;1616;52.394;9.756;2023-04-15T07:52:49;8.60;1.00
3208;DHT22;1616;52.394;9.756;2023-04-15T07:55:16;8.70;1.00
3208;DHT22;1616;52.394;9.756;2023-04-15T07:57:44;8.70;1.00
3208;DHT22;1616;52.394;9.756;2023-04-15T08:00:10;8.70;1.00
3208;DHT22;1616;52.394;9.756;2023-04-15T08:02:35;8.70;1.00
3208;DHT22;1616;52.394;9.756;2023-04-15T08:05:02;8.80;1.00
3208;DHT22;1616;52.394;9.756;2023-04-15T08:07:29;8.80;1.00
3208;DHT22;1616;52.394;9.756;2023-04-15T08:09:55;8.80;1.00
3208;DHT22;1616;52.394;9.756;2023-04-15T08:12:21;8.80;1.00
3208;DHT22;1616;52.394;9.756;2023-04-15T08:14:47;8.80;1.00
3208;DHT22;1616;52.394;9.756;2023-04-15T08:17:12;8.80;1.00
3208;DHT22;1616;52.394;9.756;2023-04-15T08:19:39;8.80;1.00
3208;DHT22;1616;52.394;9.756;2023-04-15T08:22:05;8.80;1.00
3208;DHT22;1616;52.394;9.756;2023-04-15T08:24:31;8.90;1.00
3208;DHT22;1616;52.394;9.756;2023-04-15T08:26:56;8.90;1.00
3208;DHT22;1616;52.394;9.756;2023-04-15T08:29:22;8.90;1.00
3208;DHT22;1616;52.394;9.756;2023-04-15T08:31:48;8.80;1.00
3208;DHT22;1616;52.394;9.756;2023-04-15T08:34:14;8.90;1.00
3208;DHT22;1616;52.394;9.756;2023-04-15T08:36:41;8.90;1.00
3208;DHT22;1616;52.394;9.756;2023-04-15T08:39:07;8.90;1.00
3208;DHT22;1616;52.394;9.756;2023-04-15T08:44:22;9.00;1.00
3208;DHT22;1616;52.394;9.756;2023-04-15T08:46:49;9.00;1.00
3208;DHT22;1616;52.394;9.756;2023-04-15T08:49:16;8.90;1.00
3208;DHT22;1616;52.394;9.756;2023-04-15T08:51:43;8.90;1.00
3208;DHT22;1616;52.394;9.756;2023-04-15T08:54:10;8.90;1.00
3208;DHT22;1616;52.394;9.756;2023-04-15T08:56:37;8.90;1.00
3208;DHT22;1616;52.394;9.756;2023-04-15T08:59:06;8.90;1.00
3208;DHT22;1616;52.394;9.756;2023-04-15T09:01:39;8.90;1.00
3208;DHT22;1616;52.394;9.756;2023-04-15T09:04:05;8.90;1.00
3208;DHT22;1616;52.394;9.756;2023-04-15T09:06:32;9.00;1.00
3208;DHT22;1616;52.394;9.756;2023-04-15T09:08:59;9.00;1.00
3208;DHT22;1616;52.394;9.756;2023-04-15T09:11:25;9.10;1.00
3208;DHT22;1616;52.394;9.756;2023-04-15T09:13:51;9.10;1.00
3208;DHT22;1616;52.394;9.756;2023-04-15T09:16:18;9.10;1.00
3208;DHT22;1616;52.394;9.756;2023-04-15T09:18:44;9.20;1.00
3208;DHT22;1616;52.394;9.756;2023-04-15T09:21:13;9.30;1.00
3208;DHT22;1616;52.394;9.756;2023-04-15T09:24:00;9.30;1.00
3208;DHT22;1616;52.394;9.756;2023-04-15T09:26:36;9.30;1.00
3208;DHT22;1616;52.394;9.756;2023-04-15T09:29:06;9.40;1.00
3208;DHT22;1616;52.394;9.756;2023-04-15T09:31:32;9.40;1.00
3208;DHT22;1616;52.394;9.756;2023-04-15T09:33:58;9.40;1.00
3208;DHT22;1616;52.394;9.756;2023-04-15T09:36:24;9.40;1.00
3208;DHT22;1616;52.394;9.756;2023-04-15T09:38:57;9.40;1.00
3208;DHT22;1616;52.394;9.756;2023-04-15T09:41:24;9.40;1.00
3208;DHT22;1616;52.394;9.756;2023-04-15T09:43:50;9.50;1.00
3208;DHT22;1616;52.394;9.756;2023-04-15T09:46:16;9.50;1.00
3208;DHT22;1616;52.394;9.756;2023-04-15T09:48:41;9.60;1.00
3208;DHT22;1616;52.394;9.756;2023-04-15T09:51:07;9.50;1.00
3208;DHT22;1616;52.394;9.756;2023-04-15T09:53:35;9.60;1.00
3208;DHT22;1616;52.394;9.756;2023-04-15T09:56:01;9.60;1.00
3208;DHT22;1616;52.394;9.756;2023-04-15T09:58:30;9.60;1.00
3208;DHT22;1616;52.394;9.756;2023-04-15T10:00:57;9.60;1.00
3208;DHT22;1616;52.394;9.756;2023-04-15T10:03:25;9.60;1.00
3208;DHT22;1616;52.394;9.756;2023-04-15T10:05:54;9.70;1.00
3208;DHT22;1616;52.394;9.756;2023-04-15T10:08:23;9.70;1.00
3208;DHT22;1616;52.394;9.756;2023-04-15T10:10:50;9.70;1.00
3208;DHT22;1616;52.394;9.756;2023-04-15T10:13:22;9.70;1.00
3208;DHT22;1616;52.394;9.756;2023-04-15T10:15:56;9.70;1.00
3208;DHT22;1616;52.394;9.756;2023-04-15T10:18:25;9.80;1.00
3208;DHT22;1616;52.394;9.756;2023-04-15T10:20:52;9.80;1.00
3208;DHT22;1616;52.394;9.756;2023-04-15T10:23:21;9.80;1.00
3208;DHT22;1616;52.394;9.756;2023-04-15T10:25:48;9.80;1.00
3208;DHT22;1616;52.394;9.756;2023-04-15T10:28:15;9.80;1.00
3208;DHT22;1616;52.394;9.756;2023-04-15T10:30:42;9.90;1.00
3208;DHT22;1616;52.394;9.756;2023-04-15T10:33:08;9.90;1.00
3208;DHT22;1616;52.394;9.756;2023-04-15T10:35:35;9.90;1.00
3208;DHT22;1616;52.394;9.756;2023-04-15T10:38:01;9.90;1.00
3208;DHT22;1616;52.394;9.756;2023-04-15T10:40:31;10.00;1.00
3208;DHT22;1616;52.394;9.756;2023-04-15T10:42:59;10.00;1.00
3208;DHT22;1616;52.394;9.756;2023-04-15T10:45:33;10.00;1.00
3208;DHT22;1616;52.394;9.756;2023-04-15T10:48:05;10.10;1.00
3208;DHT22;1616;52.394;9.756;2023-04-15T10:50:31;10.10;1.00
3208;DHT22;1616;52.394;9.756;2023-04-15T10:52:57;10.10;1.00
3208;DHT22;1616;52.394;9.756;2023-04-15T10:55:25;10.20;1.00
3208;DHT22;1616;52.394;9.756;2023-04-15T10:57:53;10.20;1.00
3208;DHT22;1616;52.394;9.756;2023-04-15T11:00:23;10.30;1.00
3208;DHT22;1616;52.394;9.756;2023-04-15T11:02:57;10.30;1.00
3208;DHT22;1616;52.394;9.756;2023-04-15T11:05:50;10.40;1.00
3208;DHT22;1616;52.394;9.756;2023-04-15T11:08:16;10.50;1.00
3208;DHT22;1616;52.394;9.756;2023-04-15T11:15:41;10.70;1.00
3208;DHT22;1616;52.394;9.756;2023-04-15T11:18:21;10.70;1.00
3208;DHT22;1616;52.394;9.756;2023-04-15T11:20:55;10.80;1.00
3208;DHT22;1616;52.394;9.756;2023-04-15T11:23:36;10.80;1.00
3208;DHT22;1616;52.394;9.756;2023-04-15T11:26:04;10.80;1.00
3208;DHT22;1616;52.394;9.756;2023-04-15T11:28:33;10.90;1.00
3208;DHT22;1616;52.394;9.756;2023-04-15T11:31:13;10.90;1.00
3208;DHT22;1616;52.394;9.756;2023-04-15T11:33:57;10.90;1.00
3208;DHT22;1616;52.394;9.756;2023-04-15T11:36:29;10.80;1.00
3208;DHT22;1616;52.394;9.756;2023-04-15T11:38:57;10.80;1.00
3208;DHT22;1616;52.394;9.756;2023-04-15T11:41:23;10.90;1.00
3208;DHT22;1616;52.394;9.756;2023-04-15T11:43:52;10.90;1.00
3208;DHT22;1616;52.394;9.756;2023-04-15T11:46:18;11.00;1.00
3208;DHT22;1616;52.394;9.756;2023-04-15T11:48:46;11.10;1.00
3208;DHT22;1616;52.394;9.756;2023-04-15T11:51:12;11.10;1.00
3208;DHT22;1616;52.394;9.756;2023-04-15T11:53:46;11.10;1.00
3208;DHT22;1616;52.394;9.756;2023-04-15T11:56:18;11.00;1.00
3208;DHT22;1616;52.394;9.756;2023-04-15T11:58:46;11.00;1.00
3208;DHT22;1616;52.394;9.756;2023-04-15T12:01:12;11.10;1.00
3208;DHT22;1616;52.394;9.756;2023-04-15T12:03:47;11.10;1.00
3208;DHT22;1616;52.394;9.756;2023-04-15T12:06:21;11.10;1.00
3208;DHT22;1616;52.394;9.756;2023-04-15T12:11:37;11.10;1.00
3208;DHT22;1616;52.394;9.756;2023-04-15T12:14:11;11.20;1.00
3208;DHT22;1616;52.394;9.756;2023-04-15T12:16:40;11.20;1.00
3208;DHT22;1616;52.394;9.756;2023-04-15T12:19:09;11.30;1.00
3208;DHT22;1616;52.394;9.756;2023-04-15T12:21:37;11.20;1.00
3208;DHT22;1616;52.394;9.756;2023-04-15T12:24:06;11.20;1.00
3208;DHT22;1616;52.394;9.756;2023-04-15T12:29:09;11.20;1.00
3208;DHT22;1616;52.394;9.756;2023-04-15T12:31:36;11.20;1.00
3208;DHT22;1616;52.394;9.756;2023-04-15T12:34:02;11.30;1.00
3208;DHT22;1616;52.394;9.756;2023-04-15T12:36:29;11.30;1.00
3208;DHT22;1616;52.394;9.756;2023-04-15T12:39:01;11.30;1.00
3208;DHT22;1616;52.394;9.756;2023-04-15T12:41:28;11.30;1.00
3208;DHT22;1616;52.394;9.756;2023-04-15T12:43:53;11.30;1.00
3208;DHT22;1616;52.394;9.756;2023-04-15T12:46:19;11.40;1.00
3208;DHT22;1616;52.394;9.756;2023-04-15T12:48:46;11.40;1.00
3208;DHT22;1616;52.394;9.756;2023-04-15T12:51:13;11.40;1.00
3208;DHT22;1616;52.394;9.756;2023-04-15T12:53:38;11.50;1.00
3208;DHT22;1616;52.394;9.756;2023-04-15T12:56:04;11.60;1.00
3208;DHT22;1616;52.394;9.756;2023-04-15T12:58:31;11.60;1.00
3208;DHT22;1616;52.394;9.756;2023-04-15T13:00:56;11.70;1.00
3208;DHT22;1616;52.394;9.756;2023-04-15T13:03:22;11.80;1.00
3208;DHT22;1616;52.394;9.756;2023-04-15T13:05:48;11.90;1.00
3208;DHT22;1616;52.394;9.756;2023-04-15T13:08:13;12.00;1.00
3208;DHT22;1616;52.394;9.756;2023-04-15T13:10:40;12.20;1.00
3208;DHT22;1616;52.394;9.756;2023-04-15T13:13:07;12.30;1.00
3208;DHT22;1616;52.394;9.756;2023-04-15T13:15:33;12.50;1.00
3208;DHT22;1616;52.394;9.756;2023-04-15T13:17:59;12.60;1.00
3208;DHT22;1616;52.394;9.756;2023-04-15T13:20:24;12.70;1.00
3208;DHT22;1616;52.394;9.756;2023-04-15T13:22:52;12.80;1.00
3208;DHT22;1616;52.394;9.756;2023-04-15T13:25:18;12.90;1.00
3208;DHT22;1616;52.394;9.756;2023-04-15T13:27:44;13.00;1.00
3208;DHT22;1616;52.394;9.756;2023-04-15T13:30:09;13.00;1.00
3208;DHT22;1616;52.394;9.756;2023-04-15T13:32:35;13.20;1.00
3208;DHT22;1616;52.394;9.756;2023-04-15T13:35:01;13.30;1.00
3208;DHT22;1616;52.394;9.756;2023-04-15T13:37:27;13.40;1.00
3208;DHT22;1616;52.394;9.756;2023-04-15T13:39:54;13.70;1.00
3208;DHT22;1616;52.394;9.756;2023-04-15T13:42:21;13.70;1.00
3208;DHT22;1616;52.394;9.756;2023-04-15T13:44:46;13.80;1.00
3208;DHT22;1616;52.394;9.756;2023-04-15T13:47:12;13.90;1.00
3208;DHT22;1616;52.394;9.756;2023-04-15T13:49:39;14.20;1.00
3208;DHT22;1616;52.394;9.756;2023-04-15T13:52:05;14.70;1.00
3208;DHT22;1616;52.394;9.756;2023-04-15T13:54:31;15.10;1.00
3208;DHT22;1616;52.394;9.756;2023-04-15T13:56:57;15.50;1.00
3208;DHT22;1616;52.394;9.756;2023-04-15T13:59:23;15.80;1.00
3208;DHT22;1616;52.394;9.756;2023-04-15T14:01:48;16.00;1.00
3208;DHT22;1616;52.394;9.756;2023-04-15T14:04:14;16.20;1.00
3208;DHT22;1616;52.394;9.756;2023-04-15T14:06:40;16.30;1.00
3208;DHT22;1616;52.394;9.756;2023-04-15T14:09:06;16.40;1.00
3208;DHT22;1616;52.394;9.756;2023-04-15T14:11:31;16.40;1.00
3208;DHT22;1616;52.394;9.756;2023-04-15T14:13:59;16.40;1.00
3208;DHT22;1616;52.394;9.756;2023-04-15T14:16:25;16.50;1.00
3208;DHT22;1616;52.394;9.756;2023-04-15T14:18:51;16.60;1.00
3208;DHT22;1616;52.394;9.756;2023-04-15T14:21:16;16.80;1.00
3208;DHT22;1616;52.394;9.756;2023-04-15T14:23:42;16.80;1.00
3208;DHT22;1616;52.394;9.756;2023-04-15T14:26:08;16.70;1.00
3208;DHT22;1616;52.394;9.756;2023-04-15T14:28:33;16.60;1.00
3208;DHT22;1616;52.394;9.756;2023-04-15T14:30:59;16.70;1.00
3208;DHT22;1616;52.394;9.756;2023-04-15T14:33:25;16.60;1.00
3208;DHT22;1616;52.394;9.756;2023-04-15T14:35:51;16.60;1.00
3208;DHT22;1616;52.394;9.756;2023-04-15T14:38:16;16.50;1.00
3208;DHT22;1616;52.394;9.756;2023-04-15T14:40:42;16.50;1.00
3208;DHT22;1616;52.394;9.756;2023-04-15T14:43:08;16.50;1.00
3208;DHT22;1616;52.394;9.756;2023-04-15T14:45:33;16.50;1.00
3208;DHT22;1616;52.394;9.756;2023-04-15T14:47:59;16.50;1.00
3208;DHT22;1616;52.394;9.756;2023-04-15T14:50:27;16.50;1.00
3208;DHT22;1616;52.394;9.756;2023-04-15T14:52:52;16.30;1.00
3208;DHT22;1616;52.394;9.756;2023-04-15T14:55:18;16.40;1.00
3208;DHT22;1616;52.394;9.756;2023-04-15T14:57:43;16.30;1.00
3208;DHT22;1616;52.394;9.756;2023-04-15T15:00:10;16.20;1.00
3208;DHT22;1616;52.394;9.756;2023-04-15T15:02:37;16.20;1.00
3208;DHT22;1616;52.394;9.756;2023-04-15T15:05:02;16.20;1.00
3208;DHT22;1616;52.394;9.756;2023-04-15T15:07:28;16.20;1.00
3208;DHT22;1616;52.394;9.756;2023-04-15T15:09:54;16.30;1.00
3208;DHT22;1616;52.394;9.756;2023-04-15T15:12:20;16.40;1.00
3208;DHT22;1616;52.394;9.756;2023-04-15T15:14:47;16.60;1.00
3208;DHT22;1616;52.394;9.756;2023-04-15T15:17:13;16.70;1.00
3208;DHT22;1616;52.394;9.756;2023-04-15T15:19:39;16.80;1.00
3208;DHT22;1616;52.394;9.756;2023-04-15T15:22:05;16.70;1.00
3208;DHT22;1616;52.394;9.756;2023-04-15T15:24:31;16.70;1.00
3208;DHT22;1616;52.394;9.756;2023-04-15T15:26:56;16.70;1.00
3208;DHT22;1616;52.394;9.756;2023-04-15T15:29:22;16.50;1.00
3208;DHT22;1616;52.394;9.756;2023-04-15T15:31:48;16.40;1.00
3208;DHT22;1616;52.394;9.756;2023-04-15T15:34:15;16.40;1.00
3208;DHT22;1616;52.394;9.756;2023-04-15T15:36:41;16.30;1.00
3208;DHT22;1616;52.394;9.756;2023-04-15T15:39:06;16.30;1.00
3208;DHT22;1616;52.394;9.756;2023-04-15T15:41:33;16.30;1.00
3208;DHT22;1616;52.394;9.756;2023-04-15T15:43:59;16.40;1.00
3208;DHT22;1616;52.394;9.756;2023-04-15T15:46:26;16.20;1.00
3208;DHT22;1616;52.394;9.756;2023-04-15T15:48:53;16.30;1.00
3208;DHT22;1616;52.394;9.756;2023-04-15T15:51:19;16.30;1.00
3208;DHT22;1616;52.394;9.756;2023-04-15T15:53:46;16.20;1.00
3208;DHT22;1616;52.394;9.756;2023-04-15T15:56:12;16.10;1.00
3208;DHT22;1616;52.394;9.756;2023-04-15T15:58:37;16.10;1.00
3208;DHT22;1616;52.394;9.756;2023-04-15T16:01:03;16.00;1.00
3208;DHT22;1616;52.394;9.756;2023-04-15T16:03:29;15.90;1.00
3208;DHT22;1616;52.394;9.756;2023-04-15T16:05:54;15.70;1.00
3208;DHT22;1616;52.394;9.756;2023-04-15T16:08:20;15.70;1.00
3208;DHT22;1616;52.394;9.756;2023-04-15T16:10:46;15.70;1.00
3208;DHT22;1616;52.394;9.756;2023-04-15T16:13:11;15.70;1.00
3208;DHT22;1616;52.394;9.756;2023-04-15T16:15:37;15.60;1.00
3208;DHT22;1616;52.394;9.756;2023-04-15T16:18:03;15.70;1.00
3208;DHT22;1616;52.394;9.756;2023-04-15T16:20:29;15.70;1.00
3208;DHT22;1616;52.394;9.756;2023-04-15T16:22:56;15.80;1.00
3208;DHT22;1616;52.394;9.756;2023-04-15T16:25:22;15.90;1.00
3208;DHT22;1616;52.394;9.756;2023-04-15T16:27:48;16.00;1.00
3208;DHT22;1616;52.394;9.756;2023-04-15T16:30:15;16.10;1.00
3208;DHT22;1616;52.394;9.756;2023-04-15T16:32:41;16.10;1.00
3208;DHT22;1616;52.394;9.756;2023-04-15T16:35:07;16.00;1.00
3208;DHT22;1616;52.394;9.756;2023-04-15T16:37:33;15.90;1.00
3208;DHT22;1616;52.394;9.756;2023-04-15T16:40:01;15.80;1.00